createdAt,value
2022-12-01T00:01:10.076Z,101170.63
2022-12-01T00:03:37.520Z,101183.88
2022-12-01T00:06:07.483Z,101177.28
2022-12-01T00:08:34.591Z,101181.47
2022-12-01T00:11:10.406Z,101185.56
2022-12-01T00:13:37.806Z,101188.50
2022-12-01T00:16:17.587Z,101192.63
2022-12-01T00:18:44.592Z,101191.94
2022-12-01T00:21:18.272Z,101205.53
2022-12-01T00:23:47.546Z,101212.03
2022-12-01T00:26:15.595Z,101219.88
2022-12-01T00:28:42.531Z,101219.22
2022-12-01T00:31:13.010Z,101229.25
2022-12-01T00:33:40.134Z,101218.38
2022-12-01T00:36:07.506Z,101220.09
2022-12-01T00:38:34.328Z,101227.25
2022-12-01T00:41:01.314Z,101224.69
2022-12-01T00:43:27.949Z,101234.56
2022-12-01T00:45:56.461Z,101228.19
2022-12-01T00:48:23.558Z,101226.47
2022-12-01T00:50:54.431Z,101221.56
2022-12-01T00:53:21.680Z,101228.19
2022-12-01T00:55:48.504Z,101229.03
2022-12-01T00:58:15.204Z,101232.06
2022-12-01T01:00:43.026Z,101234.13
2022-12-01T01:03:10.298Z,101237.53
2022-12-01T01:05:41.191Z,101248.19
2022-12-01T01:08:12.279Z,101239.03
2022-12-01T01:10:43.928Z,101232.94
2022-12-01T01:13:11.616Z,101238.03
2022-12-01T01:15:38.717Z,101228.03
2022-12-01T01:18:06.274Z,101232.41
2022-12-01T01:20:33.293Z,101215.66
2022-12-01T01:23:00.212Z,101212.59
2022-12-01T01:25:27.083Z,101218.38
2022-12-01T01:27:54.075Z,101209.72
2022-12-01T01:30:21.422Z,101201.41
2022-12-01T01:32:48.145Z,101195.13
2022-12-01T01:35:14.852Z,101191.44
2022-12-01T01:37:41.674Z,101193.44
2022-12-01T01:40:08.924Z,101182.09
2022-12-01T01:42:35.732Z,101190.72
2022-12-01T01:45:02.472Z,101183.78
2022-12-01T01:47:40.835Z,101173.97
2022-12-01T01:50:11.478Z,101178.38
2022-12-01T01:52:48.167Z,101186.16
2022-12-01T01:55:15.637Z,101191.06
2022-12-01T01:57:44.273Z,101183.66
2022-12-01T02:00:14.801Z,101180.41
2022-12-01T02:02:45.511Z,101183.94
2022-12-01T02:05:16.849Z,101177.03
2022-12-01T02:07:45.574Z,101169.22
2022-12-01T02:10:14.653Z,101182.78
2022-12-01T02:12:44.046Z,101189.50
2022-12-01T02:15:55.248Z,101187.13
2022-12-01T02:18:22.130Z,101188.47
2022-12-01T02:21:26.203Z,101188.47
2022-12-01T02:24:07.745Z,101196.41
2022-12-01T02:26:50.853Z,101189.09
2022-12-01T02:29:36.173Z,101191.78
2022-12-01T02:32:24.212Z,101190.25
2022-12-01T02:35:03.416Z,101198.22
2022-12-01T02:37:38.924Z,101198.34
2022-12-01T02:40:43.796Z,101203.25
2022-12-01T02:43:33.869Z,101201.88
2022-12-01T02:46:25.080Z,101206.59
2022-12-01T02:48:55.144Z,101217.63
2022-12-01T02:51:30.866Z,101223.91
2022-12-01T02:53:59.591Z,101224.72
2022-12-01T02:56:26.654Z,101221.09
2022-12-01T02:58:53.420Z,101215.50
2022-12-01T03:01:38.515Z,101212.25
2022-12-01T03:04:29.669Z,101217.19
2022-12-01T03:07:22.549Z,101220.22
2022-12-01T03:09:55.022Z,101215.28
2022-12-01T03:12:30.544Z,101210.50
2022-12-01T03:15:05.045Z,101212.03
2022-12-01T03:17:43.672Z,101212.88
2022-12-01T03:20:16.422Z,101197.91
2022-12-01T03:22:52.005Z,101196.69
2022-12-01T03:25:22.864Z,101202.97
2022-12-01T03:28:20.115Z,101200.91
2022-12-01T03:30:44.983Z,101205.00
2022-12-01T03:33:22.845Z,101206.69
2022-12-01T03:36:15.266Z,101212.28
2022-12-01T03:38:46.892Z,101218.22
2022-12-01T03:41:19.555Z,101208.97
2022-12-01T03:43:53.560Z,101202.19
2022-12-01T03:46:53.852Z,101195.19
2022-12-01T03:49:23.918Z,101198.75
2022-12-01T03:52:17.703Z,101194.53
2022-12-01T03:55:02.402Z,101203.84
2022-12-01T03:57:38.962Z,101188.56
2022-12-01T04:00:07.088Z,101193.31
2022-12-01T04:02:34.019Z,101202.16
2022-12-01T04:05:00.700Z,101200.09
2022-12-01T04:07:27.436Z,101198.00
2022-12-01T04:09:54.136Z,101192.97
2022-12-01T04:12:30.037Z,101202.59
2022-12-01T04:14:58.209Z,101206.13
2022-12-01T04:17:26.021Z,101211.69
2022-12-01T04:19:53.171Z,101219.66
2022-12-01T04:22:20.566Z,101214.22
2022-12-01T04:24:47.426Z,101221.00
2022-12-01T04:27:14.092Z,101222.97
2022-12-01T04:29:40.841Z,101230.47
2022-12-01T04:32:07.650Z,101239.97
2022-12-01T04:34:34.445Z,101231.97
2022-12-01T04:37:01.384Z,101223.47
2022-12-01T04:39:28.177Z,101224.31
2022-12-01T04:41:54.968Z,101238.38
2022-12-01T04:44:21.750Z,101239.72
2022-12-01T04:46:48.451Z,101238.50
2022-12-01T04:49:15.145Z,101235.97
2022-12-01T04:51:42.202Z,101230.59
2022-12-01T04:54:08.938Z,101227.88
2022-12-01T04:56:35.664Z,101229.59
2022-12-01T04:59:02.409Z,101223.59
2022-12-01T05:01:29.399Z,101218.78
2022-12-01T05:03:56.084Z,101216.56
2022-12-01T05:06:25.644Z,101218.06
2022-12-01T05:08:55.710Z,101213.00
2022-12-01T05:11:23.146Z,101208.22
2022-12-01T05:13:50.209Z,101198.16
2022-12-01T05:16:29.222Z,101192.25
2022-12-01T05:19:17.175Z,101191.22
2022-12-01T05:21:45.305Z,101185.97
2022-12-01T05:24:13.828Z,101193.94
2022-12-01T05:26:42.126Z,101194.78
2022-12-01T05:29:09.194Z,101201.16
2022-12-01T05:31:36.143Z,101208.47
2022-12-01T05:34:03.492Z,101201.16
2022-12-01T05:36:30.204Z,101197.78
2022-12-01T05:38:56.940Z,101193.53
2022-12-01T05:41:23.840Z,101203.66
2022-12-01T05:43:50.539Z,101200.41
2022-12-01T05:46:17.311Z,101198.06
2022-12-01T05:48:44.045Z,101201.81
2022-12-01T05:51:13.070Z,101202.84
2022-12-01T05:53:39.871Z,101210.34
2022-12-01T05:56:07.821Z,101206.22
2022-12-01T05:58:35.203Z,101215.22
2022-12-01T06:01:02.876Z,101217.28
2022-12-01T06:03:29.800Z,101231.44
2022-12-01T06:05:56.674Z,101224.31
2022-12-01T06:08:23.343Z,101213.91
2022-12-01T06:10:49.992Z,101218.22
2022-12-01T06:13:16.758Z,101221.78
2022-12-01T06:15:43.899Z,101218.22
2022-12-01T06:18:10.693Z,101228.06
2022-12-01T06:20:37.457Z,101226.19
2022-12-01T06:23:04.283Z,101230.28
2022-12-01T06:25:30.956Z,101230.13
2022-12-01T06:27:58.500Z,101240.13
2022-12-01T06:30:25.787Z,101239.13
2022-12-01T06:32:52.570Z,101240.31
2022-12-01T06:35:19.273Z,101243.53
2022-12-01T06:37:46.228Z,101245.91
2022-12-01T06:40:13.276Z,101242.69
2022-12-01T06:42:39.955Z,101244.47
2022-12-01T06:45:07.118Z,101242.78
2022-12-01T06:47:33.799Z,101238.94
2022-12-01T06:50:00.951Z,101248.28
2022-12-01T06:52:27.779Z,101247.84
2022-12-01T06:54:54.402Z,101252.03
2022-12-01T06:57:21.153Z,101254.28
2022-12-01T06:59:48.156Z,101260.06
2022-12-01T07:02:16.609Z,101256.16
2022-12-01T07:04:43.363Z,101260.75
2022-12-01T07:07:11.259Z,101267.53
2022-12-01T07:09:39.164Z,101265.84
2022-12-01T07:12:06.215Z,101273.16
2022-12-01T07:14:32.999Z,101277.75
2022-12-01T07:16:59.965Z,101273.75
2022-12-01T07:19:26.721Z,101278.16
2022-12-01T07:21:53.452Z,101277.31
2022-12-01T07:24:20.109Z,101283.44
2022-12-01T07:26:46.824Z,101291.50
2022-12-01T07:29:13.507Z,101284.19
2022-12-01T07:31:40.338Z,101286.63
2022-12-01T07:34:07.077Z,101287.94
2022-12-01T07:36:33.997Z,101292.75
2022-12-01T07:39:04.325Z,101293.28
2022-12-01T07:41:30.970Z,101295.16
2022-12-01T07:43:57.896Z,101296.66
2022-12-01T07:46:26.964Z,101298.00
2022-12-01T07:48:55.442Z,101304.41
2022-12-01T07:51:23.446Z,101292.50
2022-12-01T07:53:51.105Z,101303.19
2022-12-01T07:56:19.066Z,101303.50
2022-12-01T07:58:45.927Z,101306.59
2022-12-01T08:01:15.852Z,101305.75
2022-12-01T08:03:43.253Z,101310.31
2022-12-01T08:06:10.868Z,101307.44
2022-12-01T08:08:39.376Z,101307.28
2022-12-01T08:11:09.696Z,101308.13
2022-12-01T08:13:36.443Z,101304.47
2022-12-01T08:16:08.398Z,101309.41
2022-12-01T08:18:36.538Z,101312.81
2022-12-01T08:21:04.268Z,101311.78
2022-12-01T08:23:30.923Z,101315.66
2022-12-01T08:26:05.095Z,101319.03
2022-12-01T08:28:31.863Z,101315.75
2022-12-01T08:30:58.568Z,101330.41
2022-12-01T08:33:25.290Z,101332.06
2022-12-01T08:35:52.316Z,101327.97
2022-12-01T08:38:19.434Z,101335.47
2022-12-01T08:40:46.152Z,101330.41
2022-12-01T08:43:34.793Z,101326.28
2022-12-01T08:46:02.079Z,101332.03
2022-12-01T08:48:30.391Z,101331.38
2022-12-01T08:51:13.672Z,101329.31
2022-12-01T08:53:45.608Z,101331.88
2022-12-01T08:56:13.995Z,101336.81
2022-12-01T08:58:40.757Z,101341.41
2022-12-01T09:01:10.412Z,101341.22
2022-12-01T09:03:38.505Z,101346.66
2022-12-01T09:06:14.746Z,101345.13
2022-12-01T09:08:42.166Z,101347.22
2022-12-01T09:11:18.432Z,101346.38
2022-12-01T09:13:51.372Z,101345.53
2022-12-01T09:16:19.824Z,101336.03
2022-12-01T09:18:47.796Z,101337.53
2022-12-01T09:21:23.028Z,101335.28
2022-12-01T09:23:50.561Z,101329.69
2022-12-01T09:26:21.178Z,101330.03
2022-12-01T09:28:52.531Z,101331.00
2022-12-01T09:31:20.727Z,101336.09
2022-12-01T09:33:47.575Z,101328.91
2022-12-01T09:36:14.262Z,101329.56
2022-12-01T09:38:41.088Z,101324.78
2022-12-01T09:41:58.600Z,101322.06
2022-12-01T09:44:47.704Z,101324.25
2022-12-01T09:47:17.327Z,101324.72
2022-12-01T09:49:44.148Z,101331.47
2022-12-01T09:52:16.280Z,101323.16
2022-12-01T09:54:43.236Z,101329.25
2022-12-01T09:57:32.502Z,101325.50
2022-12-01T10:00:03.011Z,101330.16
2022-12-01T10:02:36.183Z,101327.63
2022-12-01T10:05:14.419Z,101327.81
2022-12-01T10:08:12.867Z,101324.34
2022-12-01T10:10:51.198Z,101328.59
2022-12-01T10:13:24.878Z,101322.31
2022-12-01T10:15:54.735Z,101317.53
2022-12-01T10:18:42.990Z,101327.00
2022-12-01T10:21:46.329Z,101318.09
2022-12-01T10:24:22.825Z,101319.88
2022-12-01T10:26:59.926Z,101314.72
2022-12-01T10:29:48.406Z,101311.16
2022-12-01T10:32:18.175Z,101308.53
2022-12-01T10:34:48.094Z,101306.31
2022-12-01T10:37:22.122Z,101313.25
2022-12-01T10:39:52.673Z,101293.88
2022-12-01T10:42:26.932Z,101297.66
2022-12-01T10:44:55.533Z,101288.94
2022-12-01T10:47:25.581Z,101296.81
2022-12-01T10:49:53.141Z,101295.59
2022-12-01T10:52:40.663Z,101303.22
2022-12-01T10:55:26.607Z,101291.47
2022-12-01T10:57:56.705Z,101286.00
2022-12-01T11:00:51.359Z,101292.13
2022-12-01T11:03:23.535Z,101282.00
2022-12-01T11:05:58.258Z,101286.56
2022-12-01T11:08:39.822Z,101288.16
2022-12-01T11:11:06.710Z,101284.72
2022-12-01T11:13:37.074Z,101276.84
2022-12-01T11:16:06.593Z,101281.59
2022-12-01T11:18:38.754Z,101286.22
2022-12-01T11:21:28.892Z,101283.94
2022-12-01T11:23:56.649Z,101283.09
2022-12-01T11:26:28.254Z,101277.09
2022-12-01T11:29:06.990Z,101268.19
2022-12-01T11:31:43.858Z,101263.22
2022-12-01T11:34:19.936Z,101264.72
2022-12-01T11:36:50.410Z,101270.72
2022-12-01T11:39:40.761Z,101272.78
2022-12-01T11:42:17.845Z,101266.84
2022-12-01T11:45:22.514Z,101261.91
2022-12-01T11:48:17.674Z,101265.53
2022-12-01T11:51:02.084Z,101277.19
2022-12-01T11:53:39.370Z,101268.06
2022-12-01T11:56:18.108Z,101267.50
2022-12-01T11:58:47.427Z,101259.91
2022-12-01T12:01:32.268Z,101261.91
2022-12-01T12:04:13.788Z,101255.22
2022-12-01T12:06:43.473Z,101255.34
2022-12-01T12:09:39.049Z,101254.00
2022-12-01T12:12:14.474Z,101240.59
2022-12-01T12:15:12.826Z,101246.88
2022-12-01T12:18:01.593Z,101245.00
2022-12-01T12:20:46.200Z,101243.31
2022-12-01T12:23:30.440Z,101243.31
2022-12-01T12:26:18.575Z,101241.91
2022-12-01T12:29:13.847Z,101237.50
2022-12-01T12:32:02.481Z,101233.34
2022-12-01T12:34:51.016Z,101236.75
2022-12-01T12:37:20.578Z,101229.69
2022-12-01T12:40:30.886Z,101223.41
2022-12-01T12:43:34.724Z,101225.09
2022-12-01T12:46:36.727Z,101219.63
2022-12-01T12:49:21.879Z,101225.09
2022-12-01T12:52:05.063Z,101221.00
2022-12-01T12:54:52.826Z,101216.22
2022-12-01T12:57:34.142Z,101225.94
2022-12-01T13:00:14.641Z,101217.94
2022-12-01T13:02:46.492Z,101217.31
2022-12-01T13:05:38.170Z,101213.28
2022-12-01T13:08:14.990Z,101222.00
2022-12-01T13:10:54.437Z,101207.72
2022-12-01T13:13:29.976Z,101214.41
2022-12-01T13:15:58.979Z,101217.50
2022-12-01T13:18:33.733Z,101212.78
2022-12-01T13:21:03.327Z,101209.50
2022-12-01T13:23:30.936Z,101210.34
2022-12-01T13:26:01.569Z,101205.38
2022-12-01T13:28:37.682Z,101210.63
2022-12-01T13:31:08.399Z,101212.81
2022-12-01T13:33:37.511Z,101212.63
2022-12-01T13:36:45.098Z,101205.97
2022-12-01T13:39:05.303Z,101205.13
2022-12-01T13:41:39.831Z,101207.00
2022-12-01T13:44:20.864Z,101210.56
2022-12-01T13:46:47.918Z,101210.75
2022-12-01T13:49:49.986Z,101204.84
2022-12-01T13:52:22.843Z,101207.56
2022-12-01T13:55:08.062Z,101205.84
2022-12-01T13:57:43.222Z,101204.69
2022-12-01T14:00:27.125Z,101200.28
2022-12-01T14:03:12.559Z,101193.53
2022-12-01T14:05:42.271Z,101201.81
2022-12-01T14:08:34.270Z,101198.03
2022-12-01T14:11:05.873Z,101194.84
2022-12-01T14:13:46.912Z,101188.75
2022-12-01T14:16:13.850Z,101199.81
2022-12-01T14:18:54.802Z,101208.47
2022-12-01T14:21:44.863Z,101197.47
2022-12-01T14:24:28.533Z,101191.84
2022-12-01T14:26:55.778Z,101194.75
2022-12-01T14:29:35.171Z,101184.91
2022-12-01T14:32:04.345Z,101193.75
2022-12-01T14:34:35.124Z,101185.56
2022-12-01T14:37:21.447Z,101192.97
2022-12-01T14:39:57.028Z,101197.84
2022-12-01T14:42:55.067Z,101196.75
2022-12-01T14:45:42.116Z,101194.38
2022-12-01T14:48:16.888Z,101206.31
2022-12-01T14:50:54.054Z,101199.19
2022-12-01T14:53:36.438Z,101197.19
2022-12-01T14:56:14.818Z,101202.34
2022-12-01T14:58:55.890Z,101202.00
2022-12-01T15:01:24.511Z,101200.31
2022-12-01T15:03:57.615Z,101191.00
2022-12-01T15:06:26.952Z,101194.75
2022-12-01T15:12:07.975Z,101199.34
2022-12-01T15:14:48.735Z,101196.16
2022-12-01T15:17:37.080Z,101195.31
2022-12-01T15:20:57.913Z,101196.72
2022-12-01T15:24:05.694Z,101203.66
2022-12-01T15:54:50.751Z,101200.59
2022-12-01T16:16:02.944Z,101200.22
2022-12-01T16:29:22.123Z,101198.75
2022-12-01T16:42:59.588Z,101198.66
2022-12-01T16:45:52.971Z,101203.09
2022-12-01T16:49:18.348Z,101190.06
2022-12-01T16:52:45.724Z,101193.44
2022-12-01T17:06:18.950Z,101200.09
2022-12-01T17:16:29.784Z,101201.91
2022-12-01T17:33:00.405Z,101197.41
2022-12-01T17:36:09.975Z,101186.53
2022-12-01T17:56:02.056Z,101199.66
2022-12-01T17:59:01.051Z,101196.38
2022-12-01T18:54:46.387Z,101197.91
2022-12-01T18:57:58.881Z,101204.78
2022-12-01T19:01:11.015Z,101204.59
2022-12-01T19:04:30.857Z,101199.16
2022-12-01T19:10:49.903Z,101198.59
2022-12-01T19:17:18.314Z,101199.88
2022-12-01T19:27:01.917Z,101201.09
2022-12-01T19:30:00.447Z,101201.09
2022-12-01T19:32:59.552Z,101197.41
2022-12-01T19:35:52.466Z,101202.47
2022-12-01T19:38:46.233Z,101197.72
2022-12-01T19:41:41.399Z,101195.50
2022-12-01T19:44:36.415Z,101199.44
2022-12-01T19:47:42.637Z,101200.06
2022-12-01T19:50:40.961Z,101197.25
2022-12-01T19:53:41.601Z,101200.81
2022-12-01T19:56:34.891Z,101200.28
2022-12-01T19:59:37.484Z,101209.78
2022-12-01T20:02:56.799Z,101210.66
2022-12-01T20:05:55.787Z,101207.97
2022-12-01T20:08:23.355Z,101204.78
2022-12-01T20:10:50.945Z,101208.38
2022-12-01T20:13:17.785Z,101212.13
2022-12-01T20:15:44.580Z,101211.94
2022-12-01T20:18:15.822Z,101213.16
2022-12-01T20:20:42.833Z,101210.78
2022-12-01T20:23:09.473Z,101205.69
2022-12-01T20:25:36.526Z,101217.22
2022-12-01T20:28:03.340Z,101207.03
2022-12-01T20:30:30.010Z,101209.41
2022-12-01T20:32:56.822Z,101204.72
2022-12-01T20:35:24.148Z,101214.38
2022-12-01T20:37:51.263Z,101207.94
2022-12-01T20:40:18.873Z,101207.78
2022-12-01T20:42:45.719Z,101213.06
2022-12-01T20:45:12.455Z,101209.50
2022-12-01T20:47:39.328Z,101213.91
2022-12-01T20:50:06.687Z,101224.44
2022-12-01T20:52:33.355Z,101219.38
2022-12-01T20:55:00.029Z,101228.19
2022-12-01T20:57:26.704Z,101226.50
2022-12-01T20:59:53.716Z,101228.34
2022-12-01T21:02:21.140Z,101226.81
2022-12-01T21:04:48.465Z,101225.81
2022-12-01T21:07:15.392Z,101222.56
2022-12-01T21:09:42.208Z,101218.69
2022-12-01T21:12:35.193Z,101222.25
2022-12-01T21:15:13.024Z,101227.66
2022-12-01T21:17:49.634Z,101217.31
2022-12-01T21:20:29.225Z,101209.53
2022-12-01T21:23:02.676Z,101214.94
2022-12-01T21:25:39.351Z,101212.06
2022-12-01T21:28:27.308Z,101215.13
2022-12-01T21:31:12.346Z,101214.25
2022-12-01T21:33:40.228Z,101217.00
2022-12-01T21:36:20.292Z,101208.34
2022-12-01T21:39:00.540Z,101208.34
2022-12-01T21:41:29.512Z,101200.72
2022-12-01T21:44:01.424Z,101199.00
2022-12-01T21:46:28.635Z,101196.47
2022-12-01T21:49:15.396Z,101189.19
2022-12-01T21:51:42.616Z,101195.63
2022-12-01T21:54:19.210Z,101204.75
2022-12-01T21:56:53.021Z,101203.75
2022-12-01T22:02:50.248Z,101194.44
2022-12-01T22:05:35.251Z,101201.06
2022-12-01T22:08:10.397Z,101204.94
2022-12-01T22:10:57.011Z,101209.50
2022-12-01T22:13:29.588Z,101205.44
2022-12-01T22:15:56.962Z,101210.88
2022-12-01T22:18:29.285Z,101205.97
2022-12-01T22:23:40.860Z,101203.41
2022-12-01T22:26:17.287Z,101200.69
2022-12-01T22:28:43.996Z,101204.44
2022-12-01T22:31:22.743Z,101205.78
2022-12-01T22:34:03.630Z,101194.25
2022-12-01T22:36:33.387Z,101202.75
2022-12-01T22:39:01.089Z,101198.66
2022-12-01T22:41:28.831Z,101197.31
2022-12-01T22:43:56.948Z,101202.56
2022-12-01T22:46:41.504Z,101200.69
2022-12-01T22:49:20.767Z,101200.53
2022-12-01T22:52:01.113Z,101195.63
2022-12-01T22:54:29.625Z,101190.69
2022-12-01T22:57:08.244Z,101196.28
2022-12-01T22:59:37.478Z,101192.03
2022-12-01T23:02:21.445Z,101188.47
2022-12-01T23:04:52.042Z,101190.84
2022-12-01T23:07:21.670Z,101192.22
2022-12-01T23:09:48.601Z,101191.69
2022-12-01T23:12:21.877Z,101195.25
2022-12-01T23:14:51.692Z,101185.75
2022-12-01T23:17:30.747Z,101188.66
2022-12-01T23:20:14.420Z,101193.06
2022-12-01T23:22:41.324Z,101193.56
2022-12-01T23:25:17.399Z,101183.03
2022-12-01T23:27:47.077Z,101182.72
2022-12-01T23:30:15.697Z,101183.91
2022-12-01T23:32:43.102Z,101184.91
2022-12-01T23:35:18.239Z,101179.69
2022-12-01T23:37:47.635Z,101175.59
2022-12-01T23:40:35.269Z,101183.88
2022-12-01T23:43:42.913Z,101185.41
2022-12-01T23:46:22.692Z,101185.75
2022-12-01T23:49:14.148Z,101179.69
2022-12-01T23:51:46.890Z,101173.22
2022-12-01T23:54:20.554Z,101177.97
2022-12-01T23:56:55.799Z,101172.25
2022-12-01T23:59:22.962Z,101179.00
